sensor_id;sensor_type;location;lat;lon;timestamp;pressure;altitude;pressure_sealevel;temperature;humidity
71299;BME280;59083;47.974;21.722;2023-02-14T00:00:36;102254.88;;;1.89;87.94
71299;BME280;59083;47.974;21.722;2023-02-14T00:03:38;102256.25;;;1.96;87.85
71299;BME280;59083;47.974;21.722;2023-02-14T00:06:39;102255.66;;;1.91;88.01
71299;BME280;59083;47.974;21.722;2023-02-14T00:09:41;102259.22;;;1.90;88.26
71299;BME280;59083;47.974;21.722;2023-02-14T00:12:42;102246.84;;;1.92;88.03
71299;BME280;59083;47.974;21.722;2023-02-14T00:15:43;102254.81;;;1.75;88.81
71299;BME280;59083;47.974;21.722;2023-02-14T00:18:44;102254.47;;;1.81;88.47
71299;BME280;59083;47.974;21.722;2023-02-14T00:22:04;102250.91;;;1.82;88.53
71299;BME280;59083;47.974;21.722;2023-02-14T00:25:05;102245.81;;;1.79;88.48
71299;BME280;59083;47.974;21.722;2023-02-14T00:28:06;102237.66;;;1.84;88.29
71299;BME280;59083;47.974;21.722;2023-02-14T00:31:08;102243.44;;;1.90;87.96
71299;BME280;59083;47.974;21.722;2023-02-14T00:34:12;102238.03;;;1.93;88.08
71299;BME280;59083;47.974;21.722;2023-02-14T00:37:14;102220.22;;;1.98;87.85
71299;BME280;59083;47.974;21.722;2023-02-14T00:40:15;102227.97;;;2.00;88.07
71299;BME280;59083;47.974;21.722;2023-02-14T00:43:16;102226.97;;;2.02;88.05
71299;BME280;59083;47.974;21.722;2023-02-14T00:46:19;102212.22;;;2.00;87.99
71299;BME280;59083;47.974;21.722;2023-02-14T00:49:20;102207.81;;;2.00;88.53
71299;BME280;59083;47.974;21.722;2023-02-14T00:52:22;102198.72;;;2.06;88.00
71299;BME280;59083;47.974;21.722;2023-02-14T00:55:23;102188.12;;;2.07;87.71
71299;BME280;59083;47.974;21.722;2023-02-14T00:58:24;102184.28;;;2.13;87.61
71299;BME280;59083;47.974;21.722;2023-02-14T01:01:26;102175.38;;;2.16;87.42
71299;BME280;59083;47.974;21.722;2023-02-14T01:04:28;102175.19;;;2.19;87.26
71299;BME280;59083;47.974;21.722;2023-02-14T01:07:29;102175.03;;;2.22;87.22
71299;BME280;59083;47.974;21.722;2023-02-14T01:10:30;102174.84;;;2.25;86.98
71299;BME280;59083;47.974;21.722;2023-02-14T01:13:32;102176.91;;;2.20;87.20
71299;BME280;59083;47.974;21.722;2023-02-14T01:16:34;102190.81;;;2.22;87.46
71299;BME280;59083;47.974;21.722;2023-02-14T01:19:36;102155.09;;;2.18;87.54
71299;BME280;59083;47.974;21.722;2023-02-14T01:22:38;102159.63;;;2.16;87.88
71299;BME280;59083;47.974;21.722;2023-02-14T01:25:39;102159.25;;;2.22;87.70
71299;BME280;59083;47.974;21.722;2023-02-14T01:28:41;102166.03;;;2.26;87.48
71299;BME280;59083;47.974;21.722;2023-02-14T01:31:43;102162.47;;;2.27;87.49
71299;BME280;59083;47.974;21.722;2023-02-14T01:34:45;102160.75;;;2.26;87.55
71299;BME280;59083;47.974;21.722;2023-02-14T01:37:47;102160.56;;;2.29;87.27
71299;BME280;59083;47.974;21.722;2023-02-14T01:40:49;102147.78;;;2.23;87.89
71299;BME280;59083;47.974;21.722;2023-02-14T01:47:00;102150.41;;;2.23;87.71
71299;BME280;59083;47.974;21.722;2023-02-14T01:50:09;102140.09;;;2.20;88.09
71299;BME280;59083;47.974;21.722;2023-02-14T01:53:16;102141.50;;;2.25;87.65
71299;BME280;59083;47.974;21.722;2023-02-14T01:56:41;102134.47;;;2.26;87.53
71299;BME280;59083;47.974;21.722;2023-02-14T01:59:54;102144.97;;;2.26;87.72
71299;BME280;59083;47.974;21.722;2023-02-14T02:03:19;102133.62;;;2.25;87.67
71299;BME280;59083;47.974;21.722;2023-02-14T02:06:28;102150.03;;;2.29;88.06
71299;BME280;59083;47.974;21.722;2023-02-14T02:09:38;102134.47;;;2.26;87.77
71299;BME280;59083;47.974;21.722;2023-02-14T02:12:42;102126.84;;;2.21;88.12
71299;BME280;59083;47.974;21.722;2023-02-14T02:15:52;102120.75;;;2.21;87.91
71299;BME280;59083;47.974;21.722;2023-02-14T02:36:48;102147.41;;;2.15;87.96
71299;BME280;59083;47.974;21.722;2023-02-14T02:39:57;102136.13;;;2.13;88.15
71299;BME280;59083;47.974;21.722;2023-02-14T02:46:26;102133.47;;;2.13;88.72
71299;BME280;59083;47.974;21.722;2023-02-14T02:53:51;102139.59;;;2.13;88.78
71299;BME280;59083;47.974;21.722;2023-02-14T02:56:56;102146.62;;;2.13;88.95
71299;BME280;59083;47.974;21.722;2023-02-14T03:00:02;102153.66;;;2.12;88.88
71299;BME280;59083;47.974;21.722;2023-02-14T03:03:04;102143.84;;;2.16;88.50
71299;BME280;59083;47.974;21.722;2023-02-14T03:06:24;102142.06;;;2.16;88.55
71299;BME280;59083;47.974;21.722;2023-02-14T03:15:57;102148.06;;;2.18;88.52
71299;BME280;59083;47.974;21.722;2023-02-14T03:19:24;102142.88;;;2.17;88.57
71299;BME280;59083;47.974;21.722;2023-02-14T03:23:12;102135.19;;;2.14;88.81
71299;BME280;59083;47.974;21.722;2023-02-14T03:26:19;102131.78;;;2.12;88.97
71299;BME280;59083;47.974;21.722;2023-02-14T03:29:30;102139.59;;;2.13;88.99
71299;BME280;59083;47.974;21.722;2023-02-14T03:35:50;102143.00;;;2.15;88.69
71299;BME280;59083;47.974;21.722;2023-02-14T03:39:00;102149.09;;;2.16;89.04
71299;BME280;59083;47.974;21.722;2023-02-14T03:42:14;102135.72;;;2.04;89.52
71299;BME280;59083;47.974;21.722;2023-02-14T03:45:22;102135.09;;;2.15;89.44
71299;BME280;59083;47.974;21.722;2023-02-14T03:48:25;102141.59;;;2.24;88.92
71299;BME280;59083;47.974;21.722;2023-02-14T03:51:30;102139.16;;;2.21;88.90
71299;BME280;59083;47.974;21.722;2023-02-14T03:54:34;102131.41;;;2.18;89.19
71299;BME280;59083;47.974;21.722;2023-02-14T03:57:56;102128.72;;;2.19;89.27
71299;BME280;59083;47.974;21.722;2023-02-14T04:01:05;102138.22;;;2.22;88.81
71299;BME280;59083;47.974;21.722;2023-02-14T04:04:09;102145.50;;;2.17;89.15
71299;BME280;59083;47.974;21.722;2023-02-14T04:07:14;102150.75;;;2.17;89.22
71299;BME280;59083;47.974;21.722;2023-02-14T04:10:17;102149.84;;;2.18;89.12
71299;BME280;59083;47.974;21.722;2023-02-14T04:13:19;102154.34;;;2.16;89.10
71299;BME280;59083;47.974;21.722;2023-02-14T04:16:20;102154.09;;;2.20;88.94
71299;BME280;59083;47.974;21.722;2023-02-14T04:19:22;102151.31;;;2.07;89.45
71299;BME280;59083;47.974;21.722;2023-02-14T04:22:23;102149.25;;;2.13;89.48
71299;BME280;59083;47.974;21.722;2023-02-14T04:25:24;102145.88;;;2.11;89.21
71299;BME280;59083;47.974;21.722;2023-02-14T04:28:26;102145.50;;;2.17;89.36
71299;BME280;59083;47.974;21.722;2023-02-14T04:31:27;102165.03;;;2.13;89.33
71299;BME280;59083;47.974;21.722;2023-02-14T04:34:28;102160.47;;;2.16;89.12
71299;BME280;59083;47.974;21.722;2023-02-14T04:37:30;102156.13;;;2.15;89.05
71299;BME280;59083;47.974;21.722;2023-02-14T04:40:31;102159.41;;;2.19;89.06
71299;BME280;59083;47.974;21.722;2023-02-14T04:43:32;102145.88;;;2.11;89.39
71299;BME280;59083;47.974;21.722;2023-02-14T04:46:34;102153.00;;;2.08;89.49
71299;BME280;59083;47.974;21.722;2023-02-14T04:49:35;102145.06;;;1.94;90.23
71299;BME280;59083;47.974;21.722;2023-02-14T04:52:36;102145.25;;;1.91;90.47
71299;BME280;59083;47.974;21.722;2023-02-14T04:55:38;102150.19;;;1.82;90.98
71299;BME280;59083;47.974;21.722;2023-02-14T04:58:39;102162.66;;;1.78;90.92
71299;BME280;59083;47.974;21.722;2023-02-14T05:01:40;102149.69;;;1.75;91.44
71299;BME280;59083;47.974;21.722;2023-02-14T05:04:42;102159.34;;;1.75;91.51
71299;BME280;59083;47.974;21.722;2023-02-14T05:07:43;102147.81;;;1.77;91.36
71299;BME280;59083;47.974;21.722;2023-02-14T05:10:47;102156.50;;;1.63;92.08
71299;BME280;59083;47.974;21.722;2023-02-14T05:13:49;102160.38;;;1.72;92.00
71299;BME280;59083;47.974;21.722;2023-02-14T05:16:50;102151.59;;;1.57;92.43
71299;BME280;59083;47.974;21.722;2023-02-14T05:19:51;102155.06;;;1.58;92.50
71299;BME280;59083;47.974;21.722;2023-02-14T05:22:53;102155.72;;;1.61;92.27
71299;BME280;59083;47.974;21.722;2023-02-14T05:25:54;102154.12;;;1.59;92.49
71299;BME280;59083;47.974;21.722;2023-02-14T05:28:56;102158.75;;;1.54;93.02
71299;BME280;59083;47.974;21.722;2023-02-14T05:31:57;102153.94;;;1.62;92.84
71299;BME280;59083;47.974;21.722;2023-02-14T05:34:58;102154.12;;;1.59;93.26
71299;BME280;59083;47.974;21.722;2023-02-14T05:37:59;102157.84;;;1.55;93.07
71299;BME280;59083;47.974;21.722;2023-02-14T05:41:01;102152.66;;;1.38;94.00
71299;BME280;59083;47.974;21.722;2023-02-14T05:44:02;102158.03;;;1.52;92.86
71299;BME280;59083;47.974;21.722;2023-02-14T05:47:03;102155.75;;;1.46;93.18
71299;BME280;59083;47.974;21.722;2023-02-14T05:50:05;102152.78;;;1.52;93.03
71299;BME280;59083;47.974;21.722;2023-02-14T05:53:08;102146.75;;;1.50;93.19
71299;BME280;59083;47.974;21.722;2023-02-14T05:56:09;102150.56;;;1.44;93.43
71299;BME280;59083;47.974;21.722;2023-02-14T05:59:10;102149.56;;;1.47;93.20
71299;BME280;59083;47.974;21.722;2023-02-14T06:02:11;102154.38;;;1.54;93.05
71299;BME280;59083;47.974;21.722;2023-02-14T06:05:14;102154.12;;;1.59;92.70
71299;BME280;59083;47.974;21.722;2023-02-14T06:08:17;102148.69;;;1.62;92.73
71299;BME280;59083;47.974;21.722;2023-02-14T06:11:19;102154.47;;;1.53;93.21
71299;BME280;59083;47.974;21.722;2023-02-14T06:14:20;102154.03;;;1.60;92.94
71299;BME280;59083;47.974;21.722;2023-02-14T06:17:21;102145.81;;;1.51;93.55
71299;BME280;59083;47.974;21.722;2023-02-14T06:20:23;102154.63;;;1.50;93.64
71299;BME280;59083;47.974;21.722;2023-02-14T06:23:25;102146.66;;;1.67;92.87
71299;BME280;59083;47.974;21.722;2023-02-14T06:26:26;102153.94;;;1.62;92.97
71299;BME280;59083;47.974;21.722;2023-02-14T06:29:28;102156.75;;;1.59;93.06
71299;BME280;59083;47.974;21.722;2023-02-14T06:32:29;102150.19;;;1.66;92.96
71299;BME280;59083;47.974;21.722;2023-02-14T06:35:30;102165.13;;;1.81;92.45
71299;BME280;59083;47.974;21.722;2023-02-14T06:38:31;102157.81;;;1.86;92.22
71299;BME280;59083;47.974;21.722;2023-02-14T06:41:33;102156.13;;;1.85;92.07
71299;BME280;59083;47.974;21.722;2023-02-14T06:44:34;102159.66;;;1.84;92.32
71299;BME280;59083;47.974;21.722;2023-02-14T06:47:35;102158.19;;;1.94;91.74
71299;BME280;59083;47.974;21.722;2023-02-14T06:50:36;102155.22;;;2.00;91.68
71299;BME280;59083;47.974;21.722;2023-02-14T06:53:37;102146.75;;;1.95;91.40
71299;BME280;59083;47.974;21.722;2023-02-14T06:56:39;102162.53;;;1.95;91.61
71299;BME280;59083;47.974;21.722;2023-02-14T06:59:40;102163.38;;;1.96;91.73
71299;BME280;59083;47.974;21.722;2023-02-14T07:02:41;102154.03;;;2.06;91.29
71299;BME280;59083;47.974;21.722;2023-02-14T07:05:43;102159.47;;;2.03;91.64
71299;BME280;59083;47.974;21.722;2023-02-14T07:08:44;102168.78;;;2.08;91.16
71299;BME280;59083;47.974;21.722;2023-02-14T07:11:46;102164.88;;;2.16;90.95
71299;BME280;59083;47.974;21.722;2023-02-14T07:14:47;102162.47;;;2.27;90.34
71299;BME280;59083;47.974;21.722;2023-02-14T07:17:48;102158.50;;;2.20;90.59
71299;BME280;59083;47.974;21.722;2023-02-14T07:20:50;102169.78;;;2.22;90.61
71299;BME280;59083;47.974;21.722;2023-02-14T07:23:51;102166.59;;;2.31;90.41
71299;BME280;59083;47.974;21.722;2023-02-14T07:26:52;102167.53;;;2.30;90.34
71299;BME280;59083;47.974;21.722;2023-02-14T07:29:54;102157.41;;;2.38;90.21
71299;BME280;59083;47.974;21.722;2023-02-14T07:32:58;102156.28;;;2.42;90.09
71299;BME280;59083;47.974;21.722;2023-02-14T07:36:03;102160.78;;;2.40;90.10
71299;BME280;59083;47.974;21.722;2023-02-14T07:39:05;102160.69;;;2.41;89.65
71299;BME280;59083;47.974;21.722;2023-02-14T07:42:06;102158.63;;;2.46;89.66
71299;BME280;59083;47.974;21.722;2023-02-14T07:45:08;102159.31;;;2.50;89.21
71299;BME280;59083;47.974;21.722;2023-02-14T07:48:10;102169.94;;;2.63;88.97
71299;BME280;59083;47.974;21.722;2023-02-14T07:51:11;102153.94;;;2.37;89.65
71299;BME280;59083;47.974;21.722;2023-02-14T07:54:12;102170.03;;;2.61;89.49
71299;BME280;59083;47.974;21.722;2023-02-14T07:57:13;102169.97;;;2.77;88.63
71299;BME280;59083;47.974;21.722;2023-02-14T08:00:15;102169.66;;;2.81;88.24
71299;BME280;59083;47.974;21.722;2023-02-14T08:03:17;102179.19;;;2.84;88.03
71299;BME280;59083;47.974;21.722;2023-02-14T08:06:19;102180.94;;;2.98;87.82
71299;BME280;59083;47.974;21.722;2023-02-14T08:09:20;102181.25;;;3.07;87.40
71299;BME280;59083;47.974;21.722;2023-02-14T08:12:24;102188.31;;;3.07;87.16
71299;BME280;59083;47.974;21.722;2023-02-14T08:15:44;102180.69;;;2.88;86.88
71299;BME280;59083;47.974;21.722;2023-02-14T08:19:04;102177.28;;;2.86;87.66
71299;BME280;59083;47.974;21.722;2023-02-14T08:22:06;102185.84;;;3.04;87.27
71299;BME280;59083;47.974;21.722;2023-02-14T08:25:07;102186.41;;;3.09;87.12
71299;BME280;59083;47.974;21.722;2023-02-14T08:28:09;102182.47;;;3.02;86.78
71299;BME280;59083;47.974;21.722;2023-02-14T08:31:11;102184.31;;;3.14;86.78
71299;BME280;59083;47.974;21.722;2023-02-14T08:34:13;102178.41;;;3.24;86.37
71299;BME280;59083;47.974;21.722;2023-02-14T08:37:14;102181.53;;;3.17;85.88
71299;BME280;59083;47.974;21.722;2023-02-14T08:40:16;102178.59;;;3.21;86.22
71299;BME280;59083;47.974;21.722;2023-02-14T08:43:17;102181.66;;;3.42;85.63
71299;BME280;59083;47.974;21.722;2023-02-14T08:46:18;102180.84;;;3.42;85.61
71299;BME280;59083;47.974;21.722;2023-02-14T08:49:20;102182.41;;;3.58;85.14
71299;BME280;59083;47.974;21.722;2023-02-14T08:52:21;102183.81;;;3.64;84.76
71299;BME280;59083;47.974;21.722;2023-02-14T08:55:22;102184.03;;;3.73;84.38
71299;BME280;59083;47.974;21.722;2023-02-14T08:58:23;102192.13;;;3.70;84.27
71299;BME280;59083;47.974;21.722;2023-02-14T09:01:24;102194.28;;;3.78;84.07
71299;BME280;59083;47.974;21.722;2023-02-14T09:04:26;102201.66;;;3.73;84.01
71299;BME280;59083;47.974;21.722;2023-02-14T09:07:27;102208.81;;;3.71;83.83
71299;BME280;59083;47.974;21.722;2023-02-14T09:10:28;102213.22;;;3.70;83.61
71299;BME280;59083;47.974;21.722;2023-02-14T09:13:29;102209.72;;;3.84;83.47
71299;BME280;59083;47.974;21.722;2023-02-14T09:16:30;102204.50;;;3.97;83.17
71299;BME280;59083;47.974;21.722;2023-02-14T09:19:32;102210.34;;;3.88;83.20
71299;BME280;59083;47.974;21.722;2023-02-14T09:22:34;102212.34;;;4.11;82.99
71299;BME280;59083;47.974;21.722;2023-02-14T09:25:35;102201.91;;;4.09;82.47
71299;BME280;59083;47.974;21.722;2023-02-14T09:28:37;102214.53;;;4.31;81.96
71299;BME280;59083;47.974;21.722;2023-02-14T09:31:38;102212.19;;;4.39;81.52
71299;BME280;59083;47.974;21.722;2023-02-14T09:34:39;102217.28;;;4.42;81.14
71299;BME280;59083;47.974;21.722;2023-02-14T09:37:40;102215.81;;;4.38;81.39
71299;BME280;59083;47.974;21.722;2023-02-14T09:40:42;102215.50;;;4.43;80.81
71299;BME280;59083;47.974;21.722;2023-02-14T09:43:49;102210.97;;;4.57;80.60
71299;BME280;59083;47.974;21.722;2023-02-14T09:46:53;102213.00;;;4.54;80.58
71299;BME280;59083;47.974;21.722;2023-02-14T09:49:57;102218.59;;;4.75;80.28
71299;BME280;59083;47.974;21.722;2023-02-14T09:53:24;102213.72;;;4.69;79.95
71299;BME280;59083;47.974;21.722;2023-02-14T09:56:46;102207.41;;;4.84;79.32
71299;BME280;59083;47.974;21.722;2023-02-14T09:59:56;102195.16;;;4.83;79.30
71299;BME280;59083;47.974;21.722;2023-02-14T10:15:47;102185.94;;;5.63;76.62
71299;BME280;59083;47.974;21.722;2023-02-14T10:19:04;102171.28;;;5.70;75.71
71299;BME280;59083;47.974;21.722;2023-02-14T10:22:13;102180.50;;;6.01;75.36
71299;BME280;59083;47.974;21.722;2023-02-14T10:25:21;102179.44;;;6.03;73.89
71299;BME280;59083;47.974;21.722;2023-02-14T10:28:32;102179.75;;;6.22;73.01
71299;BME280;59083;47.974;21.722;2023-02-14T10:31:42;102176.41;;;6.20;72.40
71299;BME280;59083;47.974;21.722;2023-02-14T10:34:50;102181.12;;;6.39;72.26
71299;BME280;59083;47.974;21.722;2023-02-14T10:45:09;102169.16;;;6.69;72.14
71299;BME280;59083;47.974;21.722;2023-02-14T10:55:17;102151.94;;;6.96;69.51
71299;BME280;59083;47.974;21.722;2023-02-14T10:58:21;102158.72;;;7.12;69.49
71299;BME280;59083;47.974;21.722;2023-02-14T11:01:24;102152.41;;;7.24;69.28
71299;BME280;59083;47.974;21.722;2023-02-14T11:04:26;102155.78;;;7.26;68.18
71299;BME280;59083;47.974;21.722;2023-02-14T11:07:27;102148.56;;;7.28;68.50
71299;BME280;59083;47.974;21.722;2023-02-14T11:10:31;102151.66;;;7.55;68.34
71299;BME280;59083;47.974;21.722;2023-02-14T11:13:36;102150.19;;;7.62;66.27
71299;BME280;59083;47.974;21.722;2023-02-14T11:16:37;102141.91;;;7.87;64.34
71299;BME280;59083;47.974;21.722;2023-02-14T11:19:39;102132.88;;;8.11;64.56
71299;BME280;59083;47.974;21.722;2023-02-14T11:22:41;102136.25;;;8.13;65.54
71299;BME280;59083;47.974;21.722;2023-02-14T11:25:49;102130.72;;;8.05;64.61
71299;BME280;59083;47.974;21.722;2023-02-14T11:28:55;102124.94;;;7.79;64.86
71299;BME280;59083;47.974;21.722;2023-02-14T11:32:06;102117.44;;;7.41;66.25
71299;BME280;59083;47.974;21.722;2023-02-14T11:35:20;102111.41;;;7.50;66.70
71299;BME280;59083;47.974;21.722;2023-02-14T11:38:27;102112.13;;;7.41;65.86
71299;BME280;59083;47.974;21.722;2023-02-14T11:41:51;102107.72;;;7.19;67.15
71299;BME280;59083;47.974;21.722;2023-02-14T11:44:54;102097.97;;;6.97;67.70
71299;BME280;59083;47.974;21.722;2023-02-14T11:51:16;102088.97;;;6.78;68.92
71299;BME280;59083;47.974;21.722;2023-02-14T11:54:28;102089.31;;;6.73;69.40
71299;BME280;59083;47.974;21.722;2023-02-14T11:57:36;102086.78;;;6.94;69.74
71299;BME280;59083;47.974;21.722;2023-02-14T12:00:39;102087.31;;;7.31;68.58
71299;BME280;59083;47.974;21.722;2023-02-14T12:03:45;102070.72;;;7.61;67.77
71299;BME280;59083;47.974;21.722;2023-02-14T12:06:47;102065.34;;;7.51;66.64
71299;BME280;59083;47.974;21.722;2023-02-14T12:10:07;102055.72;;;7.39;66.83
71299;BME280;59083;47.974;21.722;2023-02-14T12:16:20;102063.94;;;7.25;66.94
71299;BME280;59083;47.974;21.722;2023-02-14T12:19:36;102058.34;;;7.50;66.59
71299;BME280;59083;47.974;21.722;2023-02-14T12:22:46;102061.19;;;7.58;65.14
71299;BME280;59083;47.974;21.722;2023-02-14T12:25:55;102056.31;;;7.74;64.93
71299;BME280;59083;47.974;21.722;2023-02-14T12:29:05;102060.00;;;7.83;63.80
71299;BME280;59083;47.974;21.722;2023-02-14T12:39:29;102058.81;;;7.76;64.35
71299;BME280;59083;47.974;21.722;2023-02-14T12:52:59;102046.47;;;7.65;64.19
71299;BME280;59083;47.974;21.722;2023-02-14T12:59:40;102051.31;;;7.60;64.74
71299;BME280;59083;47.974;21.722;2023-02-14T13:09:39;102043.63;;;7.57;65.25
71299;BME280;59083;47.974;21.722;2023-02-14T13:13:06;102034.41;;;7.61;65.01
71299;BME280;59083;47.974;21.722;2023-02-14T13:16:22;102044.53;;;7.67;64.68
71299;BME280;59083;47.974;21.722;2023-02-14T13:22:53;102043.97;;;7.84;63.84
71299;BME280;59083;47.974;21.722;2023-02-14T13:26:04;102041.81;;;7.78;64.44
71299;BME280;59083;47.974;21.722;2023-02-14T13:29:12;102041.03;;;7.87;64.09
71299;BME280;59083;47.974;21.722;2023-02-14T13:32:17;102044.59;;;7.77;64.13
71299;BME280;59083;47.974;21.722;2023-02-14T13:35:21;102045.16;;;7.80;64.32
71299;BME280;59083;47.974;21.722;2023-02-14T13:38:25;102046.53;;;7.75;64.68
71299;BME280;59083;47.974;21.722;2023-02-14T13:41:27;102044.88;;;7.74;64.78
71299;BME280;59083;47.974;21.722;2023-02-14T13:47:38;102043.19;;;7.73;65.08
71299;BME280;59083;47.974;21.722;2023-02-14T13:50:56;102035.53;;;7.79;64.73
71299;BME280;59083;47.974;21.722;2023-02-14T13:53:58;102041.53;;;7.81;64.83
71299;BME280;59083;47.974;21.722;2023-02-14T13:57:22;102030.34;;;7.78;64.96
71299;BME280;59083;47.974;21.722;2023-02-14T14:00:43;102030.47;;;7.76;65.22
71299;BME280;59083;47.974;21.722;2023-02-14T14:03:52;102023.47;;;7.75;65.61
71299;BME280;59083;47.974;21.722;2023-02-14T14:10:10;102035.84;;;7.65;66.12
71299;BME280;59083;47.974;21.722;2023-02-14T14:16:55;102038.88;;;7.61;66.79
71299;BME280;59083;47.974;21.722;2023-02-14T14:19:57;102042.88;;;7.55;67.42
71299;BME280;59083;47.974;21.722;2023-02-14T14:22:59;102049.16;;;7.54;67.33
71299;BME280;59083;47.974;21.722;2023-02-14T14:26:01;102041.97;;;7.45;68.14
71299;BME280;59083;47.974;21.722;2023-02-14T14:29:20;102036.44;;;7.37;68.36
71299;BME280;59083;47.974;21.722;2023-02-14T14:32:36;102042.47;;;7.39;68.64
71299;BME280;59083;47.974;21.722;2023-02-14T14:35:38;102030.69;;;7.32;68.96
71299;BME280;59083;47.974;21.722;2023-02-14T14:38:48;102040.56;;;7.30;69.17
71299;BME280;59083;47.974;21.722;2023-02-14T14:41:49;102033.94;;;7.24;69.88
71299;BME280;59083;47.974;21.722;2023-02-14T14:44:56;102033.37;;;7.21;69.75
71299;BME280;59083;47.974;21.722;2023-02-14T14:48:06;102033.13;;;7.13;70.02
71299;BME280;59083;47.974;21.722;2023-02-14T14:51:16;102038.69;;;7.10;70.21
71299;BME280;59083;47.974;21.722;2023-02-14T14:54:22;102041.56;;;7.06;70.41
71299;BME280;59083;47.974;21.722;2023-02-14T14:57:25;102036.91;;;6.99;71.02
71299;BME280;59083;47.974;21.722;2023-02-14T15:00:28;102034.16;;;7.00;70.94
71299;BME280;59083;47.974;21.722;2023-02-14T15:03:30;102037.63;;;6.90;71.54
71299;BME280;59083;47.974;21.722;2023-02-14T15:06:32;102043.09;;;6.88;71.55
71299;BME280;59083;47.974;21.722;2023-02-14T15:09:33;102047.91;;;6.83;71.87
71299;BME280;59083;47.974;21.722;2023-02-14T15:12:34;102036.13;;;6.65;72.26
71299;BME280;59083;47.974;21.722;2023-02-14T15:15:54;102055.84;;;6.72;72.58
71299;BME280;59083;47.974;21.722;2023-02-14T15:19:23;102054.03;;;6.61;72.69
71299;BME280;59083;47.974;21.722;2023-02-14T15:25:36;102054.88;;;6.40;73.36
71299;BME280;59083;47.974;21.722;2023-02-14T15:28:37;102055.12;;;6.37;73.84
71299;BME280;59083;47.974;21.722;2023-02-14T15:31:39;102054.28;;;6.25;74.34
71299;BME280;59083;47.974;21.722;2023-02-14T15:34:40;102061.38;;;6.25;74.45
71299;BME280;59083;47.974;21.722;2023-02-14T15:37:43;102062.31;;;6.12;75.12
71299;BME280;59083;47.974;21.722;2023-02-14T15:40:45;102065.03;;;6.00;75.58
71299;BME280;59083;47.974;21.722;2023-02-14T15:43:51;102069.22;;;5.91;76.11
71299;BME280;59083;47.974;21.722;2023-02-14T15:47:03;102072.09;;;5.88;76.49
71299;BME280;59083;47.974;21.722;2023-02-14T15:50:27;102076.84;;;5.83;76.60
71299;BME280;59083;47.974;21.722;2023-02-14T15:53:41;102080.25;;;5.85;76.43
71299;BME280;59083;47.974;21.722;2023-02-14T15:56:46;102080.87;;;5.89;76.67
71299;BME280;59083;47.974;21.722;2023-02-14T15:59:49;102085.09;;;5.91;76.30
71299;BME280;59083;47.974;21.722;2023-02-14T16:03:13;102085.31;;;5.88;76.68
71299;BME280;59083;47.974;21.722;2023-02-14T16:09:31;102092.78;;;5.94;76.33
71299;BME280;59083;47.974;21.722;2023-02-14T16:12:38;102099.03;;;5.93;76.90
71299;BME280;59083;47.974;21.722;2023-02-14T16:15:58;102093.75;;;5.93;76.81
71299;BME280;59083;47.974;21.722;2023-02-14T16:19:00;102099.50;;;5.87;77.15
71299;BME280;59083;47.974;21.722;2023-02-14T16:22:04;102097.03;;;5.73;77.50
71299;BME280;59083;47.974;21.722;2023-02-14T16:25:07;102103.31;;;5.59;77.68
71299;BME280;59083;47.974;21.722;2023-02-14T16:28:08;102109.19;;;5.52;77.98
71299;BME280;59083;47.974;21.722;2023-02-14T16:31:12;102111.78;;;5.40;78.81
71299;BME280;59083;47.974;21.722;2023-02-14T16:34:15;102105.84;;;5.37;78.63
71299;BME280;59083;47.974;21.722;2023-02-14T16:37:28;102102.09;;;5.28;79.34
71299;BME280;59083;47.974;21.722;2023-02-14T16:40:31;102097.87;;;5.13;79.77
71299;BME280;59083;47.974;21.722;2023-02-14T16:43:32;102102.88;;;5.05;80.16
71299;BME280;59083;47.974;21.722;2023-02-14T16:46:34;102097.41;;;4.95;80.51
71299;BME280;59083;47.974;21.722;2023-02-14T16:49:35;102105.13;;;4.86;81.01
71299;BME280;59083;47.974;21.722;2023-02-14T16:52:37;102106.50;;;4.79;81.18
71299;BME280;59083;47.974;21.722;2023-02-14T16:55:39;102105.28;;;4.72;81.68
71299;BME280;59083;47.974;21.722;2023-02-14T16:58:40;102116.25;;;4.66;81.98
71299;BME280;59083;47.974;21.722;2023-02-14T17:01:42;102118.16;;;4.64;82.22
71299;BME280;59083;47.974;21.722;2023-02-14T17:04:44;102114.66;;;4.50;82.81
71299;BME280;59083;47.974;21.722;2023-02-14T17:07:45;102116.78;;;4.45;83.01
71299;BME280;59083;47.974;21.722;2023-02-14T17:10:46;102114.69;;;4.38;83.53
71299;BME280;59083;47.974;21.722;2023-02-14T17:13:49;102113.31;;;4.32;83.62
71299;BME280;59083;47.974;21.722;2023-02-14T17:16:51;102117.31;;;4.25;83.88
71299;BME280;59083;47.974;21.722;2023-02-14T17:19:53;102114.31;;;4.17;84.48
71299;BME280;59083;47.974;21.722;2023-02-14T17:22:54;102125.81;;;4.16;84.48
71299;BME280;59083;47.974;21.722;2023-02-14T17:25:55;102113.59;;;4.15;84.78
71299;BME280;59083;47.974;21.722;2023-02-14T17:28:56;102113.16;;;4.08;84.58
71299;BME280;59083;47.974;21.722;2023-02-14T17:31:58;102119.75;;;3.89;85.24
71299;BME280;59083;47.974;21.722;2023-02-14T17:34:59;102117.63;;;3.81;85.36
71299;BME280;59083;47.974;21.722;2023-02-14T17:38:03;102123.19;;;3.77;85.82
71299;BME280;59083;47.974;21.722;2023-02-14T17:41:15;102129.47;;;3.61;86.22
71299;BME280;59083;47.974;21.722;2023-02-14T17:44:17;102121.19;;;3.53;86.48
71299;BME280;59083;47.974;21.722;2023-02-14T17:47:18;102127.44;;;3.52;86.91
71299;BME280;59083;47.974;21.722;2023-02-14T17:50:20;102137.03;;;3.53;87.46
71299;BME280;59083;47.974;21.722;2023-02-14T17:53:21;102138.72;;;3.54;87.09
71299;BME280;59083;47.974;21.722;2023-02-14T17:56:23;102135.13;;;3.55;87.04
71299;BME280;59083;47.974;21.722;2023-02-14T17:59:24;102139.25;;;3.59;87.19
71299;BME280;59083;47.974;21.722;2023-02-14T18:02:26;102146.78;;;3.65;87.25
71299;BME280;59083;47.974;21.722;2023-02-14T18:05:28;102143.94;;;3.68;87.14